sensor_id;sensor_type;location;lat;lon;timestamp;P1;durP1;ratioP1;P2;durP2;ratioP2
75499;SDS011;64076;51.466;7.260;2023-11-22T00:00:07;18.13;;;12.83;;
75499;SDS011;64076;51.466;7.260;2023-11-22T00:02:33;16.45;;;11.90;;
75499;SDS011;64076;51.466;7.260;2023-11-22T00:04:59;16.52;;;11.93;;
75499;SDS011;64076;51.466;7.260;2023-11-22T00:07:25;18.87;;;12.90;;
75499;SDS011;64076;51.466;7.260;2023-11-22T00:09:54;16.65;;;11.23;;
75499;SDS011;64076;51.466;7.260;2023-11-22T00:12:20;17.42;;;12.18;;
75499;SDS011;64076;51.466;7.260;2023-11-22T00:14:46;17.83;;;11.52;;
75499;SDS011;64076;51.466;7.260;2023-11-22T00:17:12;16.90;;;11.63;;
75499;SDS011;64076;51.466;7.260;2023-11-22T00:19:38;18.60;;;12.70;;
75499;SDS011;64076;51.466;7.260;2023-11-22T00:22:03;17.98;;;12.23;;
75499;SDS011;64076;51.466;7.260;2023-11-22T00:24:36;18.70;;;12.30;;
75499;SDS011;64076;51.466;7.260;2023-11-22T00:27:02;18.33;;;12.85;;
75499;SDS011;64076;51.466;7.260;2023-11-22T00:29:28;18.60;;;12.43;;
75499;SDS011;64076;51.466;7.260;2023-11-22T00:31:53;19.60;;;12.27;;
75499;SDS011;64076;51.466;7.260;2023-11-22T00:34:19;17.70;;;11.90;;
75499;SDS011;64076;51.466;7.260;2023-11-22T00:36:44;16.58;;;11.55;;
75499;SDS011;64076;51.466;7.260;2023-11-22T00:39:10;18.70;;;11.80;;
75499;SDS011;64076;51.466;7.260;2023-11-22T00:41:38;18.98;;;11.93;;
75499;SDS011;64076;51.466;7.260;2023-11-22T00:44:03;18.20;;;12.53;;
75499;SDS011;64076;51.466;7.260;2023-11-22T00:46:30;17.40;;;11.98;;
75499;SDS011;64076;51.466;7.260;2023-11-22T00:48:59;17.25;;;11.85;;
75499;SDS011;64076;51.466;7.260;2023-11-22T00:51:25;18.73;;;12.70;;
75499;SDS011;64076;51.466;7.260;2023-11-22T00:53:51;17.15;;;11.98;;
75499;SDS011;64076;51.466;7.260;2023-11-22T00:56:17;17.98;;;12.43;;
75499;SDS011;64076;51.466;7.260;2023-11-22T00:58:42;16.17;;;11.80;;
75499;SDS011;64076;51.466;7.260;2023-11-22T01:01:08;17.92;;;12.90;;
75499;SDS011;64076;51.466;7.260;2023-11-22T01:03:33;17.70;;;12.77;;
75499;SDS011;64076;51.466;7.260;2023-11-22T01:06:00;17.45;;;12.20;;
75499;SDS011;64076;51.466;7.260;2023-11-22T01:08:26;16.40;;;12.25;;
75499;SDS011;64076;51.466;7.260;2023-11-22T01:10:51;16.53;;;11.37;;
75499;SDS011;64076;51.466;7.260;2023-11-22T01:13:17;16.63;;;11.93;;
75499;SDS011;64076;51.466;7.260;2023-11-22T01:15:43;18.05;;;12.63;;
75499;SDS011;64076;51.466;7.260;2023-11-22T01:18:09;17.67;;;12.32;;
75499;SDS011;64076;51.466;7.260;2023-11-22T01:20:35;18.37;;;12.67;;
75499;SDS011;64076;51.466;7.260;2023-11-22T01:23:01;16.92;;;12.25;;
75499;SDS011;64076;51.466;7.260;2023-11-22T01:25:26;16.87;;;11.47;;
75499;SDS011;64076;51.466;7.260;2023-11-22T01:27:53;17.92;;;12.40;;
75499;SDS011;64076;51.466;7.260;2023-11-22T01:30:19;17.73;;;12.57;;
75499;SDS011;64076;51.466;7.260;2023-11-22T01:32:45;16.67;;;11.35;;
75499;SDS011;64076;51.466;7.260;2023-11-22T01:35:10;17.87;;;12.67;;
75499;SDS011;64076;51.466;7.260;2023-11-22T01:37:36;17.55;;;12.65;;
75499;SDS011;64076;51.466;7.260;2023-11-22T01:40:02;15.97;;;11.93;;
75499;SDS011;64076;51.466;7.260;2023-11-22T01:42:29;16.10;;;11.40;;
75499;SDS011;64076;51.466;7.260;2023-11-22T01:44:55;16.83;;;12.00;;
75499;SDS011;64076;51.466;7.260;2023-11-22T01:47:21;19.20;;;13.30;;
75499;SDS011;64076;51.466;7.260;2023-11-22T01:49:47;18.80;;;12.88;;
75499;SDS011;64076;51.466;7.260;2023-11-22T01:52:13;18.27;;;12.90;;
75499;SDS011;64076;51.466;7.260;2023-11-22T01:54:39;17.35;;;13.02;;
75499;SDS011;64076;51.466;7.260;2023-11-22T01:57:05;18.90;;;12.98;;
75499;SDS011;64076;51.466;7.260;2023-11-22T01:59:33;20.58;;;13.23;;
75499;SDS011;64076;51.466;7.260;2023-11-22T02:01:59;17.90;;;12.87;;
75499;SDS011;64076;51.466;7.260;2023-11-22T02:04:25;16.27;;;12.33;;
75499;SDS011;64076;51.466;7.260;2023-11-22T02:06:51;17.85;;;11.90;;
75499;SDS011;64076;51.466;7.260;2023-11-22T02:09:17;16.37;;;12.07;;
75499;SDS011;64076;51.466;7.260;2023-11-22T02:11:43;18.90;;;13.07;;
75499;SDS011;64076;51.466;7.260;2023-11-22T02:14:12;17.60;;;12.63;;
75499;SDS011;64076;51.466;7.260;2023-11-22T02:16:38;19.27;;;13.13;;
75499;SDS011;64076;51.466;7.260;2023-11-22T02:19:05;19.83;;;12.60;;
75499;SDS011;64076;51.466;7.260;2023-11-22T02:21:32;17.05;;;12.13;;
75499;SDS011;64076;51.466;7.260;2023-11-22T02:23:58;17.52;;;13.27;;
75499;SDS011;64076;51.466;7.260;2023-11-22T02:26:24;18.07;;;13.10;;
75499;SDS011;64076;51.466;7.260;2023-11-22T02:28:49;17.17;;;12.25;;
75499;SDS011;64076;51.466;7.260;2023-11-22T02:31:15;18.70;;;12.97;;
75499;SDS011;64076;51.466;7.260;2023-11-22T02:33:41;19.95;;;14.07;;
75499;SDS011;64076;51.466;7.260;2023-11-22T02:36:07;19.87;;;13.67;;
75499;SDS011;64076;51.466;7.260;2023-11-22T02:38:33;20.45;;;13.65;;
75499;SDS011;64076;51.466;7.260;2023-11-22T02:41:00;20.77;;;14.13;;
75499;SDS011;64076;51.466;7.260;2023-11-22T02:43:26;20.60;;;13.63;;
75499;SDS011;64076;51.466;7.260;2023-11-22T02:45:52;17.83;;;12.73;;
75499;SDS011;64076;51.466;7.260;2023-11-22T02:48:18;20.23;;;14.48;;
75499;SDS011;64076;51.466;7.260;2023-11-22T02:50:44;21.30;;;13.37;;
75499;SDS011;64076;51.466;7.260;2023-11-22T02:53:09;21.15;;;14.32;;
75499;SDS011;64076;51.466;7.260;2023-11-22T02:55:35;21.27;;;13.57;;
75499;SDS011;64076;51.466;7.260;2023-11-22T02:58:01;19.13;;;13.57;;
75499;SDS011;64076;51.466;7.260;2023-11-22T03:00:27;20.10;;;13.60;;
75499;SDS011;64076;51.466;7.260;2023-11-22T03:02:54;18.65;;;12.80;;
75499;SDS011;64076;51.466;7.260;2023-11-22T03:05:21;20.27;;;13.20;;
75499;SDS011;64076;51.466;7.260;2023-11-22T03:07:49;19.25;;;13.48;;
75499;SDS011;64076;51.466;7.260;2023-11-22T03:10:16;19.97;;;14.07;;
75499;SDS011;64076;51.466;7.260;2023-11-22T03:12:43;20.30;;;13.52;;
75499;SDS011;64076;51.466;7.260;2023-11-22T03:15:09;21.30;;;14.32;;
75499;SDS011;64076;51.466;7.260;2023-11-22T03:17:34;21.10;;;13.60;;
75499;SDS011;64076;51.466;7.260;2023-11-22T03:20:00;20.27;;;14.57;;
75499;SDS011;64076;51.466;7.260;2023-11-22T03:22:26;17.17;;;12.80;;
75499;SDS011;64076;51.466;7.260;2023-11-22T03:24:55;20.67;;;14.18;;
75499;SDS011;64076;51.466;7.260;2023-11-22T03:27:23;20.77;;;13.90;;
75499;SDS011;64076;51.466;7.260;2023-11-22T03:29:49;19.17;;;13.27;;
75499;SDS011;64076;51.466;7.260;2023-11-22T03:32:14;22.83;;;14.57;;
75499;SDS011;64076;51.466;7.260;2023-11-22T03:34:40;19.33;;;12.77;;
75499;SDS011;64076;51.466;7.260;2023-11-22T03:37:05;18.67;;;13.03;;
75499;SDS011;64076;51.466;7.260;2023-11-22T03:39:32;19.83;;;13.18;;
75499;SDS011;64076;51.466;7.260;2023-11-22T03:41:57;22.23;;;14.30;;
75499;SDS011;64076;51.466;7.260;2023-11-22T03:44:23;19.07;;;12.57;;
75499;SDS011;64076;51.466;7.260;2023-11-22T03:46:48;18.05;;;12.60;;
75499;SDS011;64076;51.466;7.260;2023-11-22T03:49:14;19.27;;;12.60;;
75499;SDS011;64076;51.466;7.260;2023-11-22T03:51:40;18.43;;;12.53;;
75499;SDS011;64076;51.466;7.260;2023-11-22T03:54:07;21.02;;;13.93;;
75499;SDS011;64076;51.466;7.260;2023-11-22T03:56:34;19.65;;;12.95;;
75499;SDS011;64076;51.466;7.260;2023-11-22T03:59:00;20.03;;;12.77;;
75499;SDS011;64076;51.466;7.260;2023-11-22T04:01:26;19.73;;;13.30;;
75499;SDS011;64076;51.466;7.260;2023-11-22T04:03:51;20.03;;;12.40;;
75499;SDS011;64076;51.466;7.260;2023-11-22T04:06:17;18.70;;;12.30;;
75499;SDS011;64076;51.466;7.260;2023-11-22T04:08:44;20.17;;;13.27;;
75499;SDS011;64076;51.466;7.260;2023-11-22T04:11:10;20.13;;;12.50;;
75499;SDS011;64076;51.466;7.260;2023-11-22T04:13:40;21.05;;;12.73;;
75499;SDS011;64076;51.466;7.260;2023-11-22T04:16:09;19.08;;;12.68;;
75499;SDS011;64076;51.466;7.260;2023-11-22T04:18:40;16.45;;;11.20;;
75499;SDS011;64076;51.466;7.260;2023-11-22T04:21:07;20.33;;;12.90;;
75499;SDS011;64076;51.466;7.260;2023-11-22T04:23:33;20.10;;;12.70;;
75499;SDS011;64076;51.466;7.260;2023-11-22T04:26:00;18.50;;;11.90;;
75499;SDS011;64076;51.466;7.260;2023-11-22T04:28:26;19.55;;;13.07;;
75499;SDS011;64076;51.466;7.260;2023-11-22T04:30:52;18.17;;;12.07;;
75499;SDS011;64076;51.466;7.260;2023-11-22T04:33:18;19.75;;;12.73;;
75499;SDS011;64076;51.466;7.260;2023-11-22T04:35:44;16.60;;;11.03;;
75499;SDS011;64076;51.466;7.260;2023-11-22T04:38:11;18.67;;;11.65;;
75499;SDS011;64076;51.466;7.260;2023-11-22T04:40:36;17.60;;;12.00;;
75499;SDS011;64076;51.466;7.260;2023-11-22T04:43:02;17.67;;;12.13;;
75499;SDS011;64076;51.466;7.260;2023-11-22T04:45:27;19.63;;;11.33;;
75499;SDS011;64076;51.466;7.260;2023-11-22T04:47:53;16.83;;;10.87;;
75499;SDS011;64076;51.466;7.260;2023-11-22T04:50:19;17.90;;;11.47;;
75499;SDS011;64076;51.466;7.260;2023-11-22T04:52:44;17.30;;;11.60;;
75499;SDS011;64076;51.466;7.260;2023-11-22T04:55:10;17.20;;;11.57;;
75499;SDS011;64076;51.466;7.260;2023-11-22T04:57:36;20.33;;;12.77;;
75499;SDS011;64076;51.466;7.260;2023-11-22T05:00:01;17.93;;;11.53;;
75499;SDS011;64076;51.466;7.260;2023-11-22T05:02:29;15.70;;;10.88;;
75499;SDS011;64076;51.466;7.260;2023-11-22T05:04:55;16.83;;;10.87;;
75499;SDS011;64076;51.466;7.260;2023-11-22T05:07:22;19.20;;;11.27;;
75499;SDS011;64076;51.466;7.260;2023-11-22T05:09:47;16.00;;;11.03;;
75499;SDS011;64076;51.466;7.260;2023-11-22T05:12:13;16.92;;;10.85;;
75499;SDS011;64076;51.466;7.260;2023-11-22T05:14:39;17.77;;;11.32;;
75499;SDS011;64076;51.466;7.260;2023-11-22T05:17:05;16.23;;;10.77;;
75499;SDS011;64076;51.466;7.260;2023-11-22T05:19:31;16.83;;;10.45;;
75499;SDS011;64076;51.466;7.260;2023-11-22T05:21:56;16.83;;;10.97;;
75499;SDS011;64076;51.466;7.260;2023-11-22T05:24:22;17.55;;;10.93;;
75499;SDS011;64076;51.466;7.260;2023-11-22T05:26:48;17.02;;;11.02;;
75499;SDS011;64076;51.466;7.260;2023-11-22T05:29:14;19.80;;;11.70;;
75499;SDS011;64076;51.466;7.260;2023-11-22T05:31:39;16.83;;;10.87;;
75499;SDS011;64076;51.466;7.260;2023-11-22T05:34:08;17.42;;;10.95;;
75499;SDS011;64076;51.466;7.260;2023-11-22T05:36:33;17.90;;;11.73;;
75499;SDS011;64076;51.466;7.260;2023-11-22T05:38:59;16.20;;;10.27;;
75499;SDS011;64076;51.466;7.260;2023-11-22T05:41:25;16.50;;;10.90;;
75499;SDS011;64076;51.466;7.260;2023-11-22T05:43:51;13.95;;;9.68;;
75499;SDS011;64076;51.466;7.260;2023-11-22T05:46:17;15.15;;;10.13;;
75499;SDS011;64076;51.466;7.260;2023-11-22T05:48:46;16.55;;;9.35;;
75499;SDS011;64076;51.466;7.260;2023-11-22T05:51:15;15.27;;;10.13;;
75499;SDS011;64076;51.466;7.260;2023-11-22T05:53:41;17.10;;;10.90;;
75499;SDS011;64076;51.466;7.260;2023-11-22T05:56:07;16.53;;;10.70;;
75499;SDS011;64076;51.466;7.260;2023-11-22T05:58:35;16.95;;;10.15;;
75499;SDS011;64076;51.466;7.260;2023-11-22T06:01:07;16.08;;;9.63;;
75499;SDS011;64076;51.466;7.260;2023-11-22T06:03:34;15.75;;;10.57;;
75499;SDS011;64076;51.466;7.260;2023-11-22T06:06:00;15.20;;;10.20;;
75499;SDS011;64076;51.466;7.260;2023-11-22T06:08:28;15.65;;;10.50;;
75499;SDS011;64076;51.466;7.260;2023-11-22T06:10:53;13.93;;;9.57;;
75499;SDS011;64076;51.466;7.260;2023-11-22T06:13:23;13.93;;;9.00;;
75499;SDS011;64076;51.466;7.260;2023-11-22T06:15:48;15.80;;;10.00;;
75499;SDS011;64076;51.466;7.260;2023-11-22T06:18:14;13.27;;;9.47;;
75499;SDS011;64076;51.466;7.260;2023-11-22T06:20:40;15.07;;;9.53;;
75499;SDS011;64076;51.466;7.260;2023-11-22T06:23:06;14.73;;;9.52;;
75499;SDS011;64076;51.466;7.260;2023-11-22T06:25:32;13.95;;;8.75;;
75499;SDS011;64076;51.466;7.260;2023-11-22T06:27:57;12.03;;;7.50;;
75499;SDS011;64076;51.466;7.260;2023-11-22T06:30:23;12.90;;;8.23;;
75499;SDS011;64076;51.466;7.260;2023-11-22T06:32:50;11.73;;;7.30;;
75499;SDS011;64076;51.466;7.260;2023-11-22T06:35:16;10.57;;;7.32;;
75499;SDS011;64076;51.466;7.260;2023-11-22T06:37:42;11.45;;;7.47;;
75499;SDS011;64076;51.466;7.260;2023-11-22T06:40:08;11.60;;;7.05;;
75499;SDS011;64076;51.466;7.260;2023-11-22T06:42:37;10.27;;;6.60;;
75499;SDS011;64076;51.466;7.260;2023-11-22T06:45:03;10.23;;;6.25;;
75499;SDS011;64076;51.466;7.260;2023-11-22T06:47:31;10.27;;;6.82;;
75499;SDS011;64076;51.466;7.260;2023-11-22T06:49:57;9.33;;;6.20;;
75499;SDS011;64076;51.466;7.260;2023-11-22T06:52:25;9.93;;;5.90;;
75499;SDS011;64076;51.466;7.260;2023-11-22T06:54:51;8.77;;;5.53;;
75499;SDS011;64076;51.466;7.260;2023-11-22T06:57:16;7.27;;;4.97;;
75499;SDS011;64076;51.466;7.260;2023-11-22T06:59:42;8.20;;;5.37;;
75499;SDS011;64076;51.466;7.260;2023-11-22T07:02:08;9.10;;;5.47;;
75499;SDS011;64076;51.466;7.260;2023-11-22T07:04:33;6.70;;;4.57;;
75499;SDS011;64076;51.466;7.260;2023-11-22T07:06:59;7.80;;;5.05;;
75499;SDS011;64076;51.466;7.260;2023-11-22T07:09:25;6.97;;;5.00;;
75499;SDS011;64076;51.466;7.260;2023-11-22T07:11:51;9.35;;;5.28;;
75499;SDS011;64076;51.466;7.260;2023-11-22T07:14:17;9.93;;;4.55;;
75499;SDS011;64076;51.466;7.260;2023-11-22T07:16:44;6.60;;;4.18;;
75499;SDS011;64076;51.466;7.260;2023-11-22T07:19:10;10.05;;;4.88;;
75499;SDS011;64076;51.466;7.260;2023-11-22T07:21:37;8.27;;;4.80;;
75499;SDS011;64076;51.466;7.260;2023-11-22T07:24:03;8.25;;;4.78;;
75499;SDS011;64076;51.466;7.260;2023-11-22T07:26:31;8.83;;;4.70;;
75499;SDS011;64076;51.466;7.260;2023-11-22T07:28:58;7.63;;;4.65;;
75499;SDS011;64076;51.466;7.260;2023-11-22T07:31:23;7.18;;;4.60;;
75499;SDS011;64076;51.466;7.260;2023-11-22T07:33:50;8.47;;;4.17;;
75499;SDS011;64076;51.466;7.260;2023-11-22T07:36:16;6.47;;;3.92;;
75499;SDS011;64076;51.466;7.260;2023-11-22T07:38:42;6.10;;;4.20;;
75499;SDS011;64076;51.466;7.260;2023-11-22T07:41:08;6.10;;;4.17;;
75499;SDS011;64076;51.466;7.260;2023-11-22T07:43:33;7.07;;;3.90;;
75499;SDS011;64076;51.466;7.260;2023-11-22T07:45:59;5.77;;;4.17;;
75499;SDS011;64076;51.466;7.260;2023-11-22T07:48:26;6.43;;;4.28;;
75499;SDS011;64076;51.466;7.260;2023-11-22T07:50:52;5.47;;;3.80;;
75499;SDS011;64076;51.466;7.260;2023-11-22T07:53:18;7.20;;;4.30;;
75499;SDS011;64076;51.466;7.260;2023-11-22T07:55:43;6.87;;;5.40;;
75499;SDS011;64076;51.466;7.260;2023-11-22T07:58:09;5.25;;;3.90;;
75499;SDS011;64076;51.466;7.260;2023-11-22T08:00:35;6.45;;;4.07;;
75499;SDS011;64076;51.466;7.260;2023-11-22T08:03:06;6.87;;;3.77;;
75499;SDS011;64076;51.466;7.260;2023-11-22T08:05:32;6.30;;;4.35;;
75499;SDS011;64076;51.466;7.260;2023-11-22T08:08:04;6.60;;;4.23;;
75499;SDS011;64076;51.466;7.260;2023-11-22T08:10:33;6.95;;;4.63;;
75499;SDS011;64076;51.466;7.260;2023-11-22T08:12:59;7.00;;;3.80;;
75499;SDS011;64076;51.466;7.260;2023-11-22T08:15:27;5.30;;;3.72;;
75499;SDS011;64076;51.466;7.260;2023-11-22T08:17:53;6.70;;;4.50;;
75499;SDS011;64076;51.466;7.260;2023-11-22T08:20:19;6.53;;;4.50;;
75499;SDS011;64076;51.466;7.260;2023-11-22T08:22:44;6.72;;;4.30;;
75499;SDS011;64076;51.466;7.260;2023-11-22T08:25:10;5.87;;;3.90;;
75499;SDS011;64076;51.466;7.260;2023-11-22T08:27:37;5.65;;;4.13;;
75499;SDS011;64076;51.466;7.260;2023-11-22T08:30:05;5.05;;;3.88;;
75499;SDS011;64076;51.466;7.260;2023-11-22T08:32:34;6.72;;;4.25;;
75499;SDS011;64076;51.466;7.260;2023-11-22T08:35:00;5.67;;;4.13;;
75499;SDS011;64076;51.466;7.260;2023-11-22T08:37:26;5.00;;;3.67;;
75499;SDS011;64076;51.466;7.260;2023-11-22T08:39:51;5.23;;;3.80;;
75499;SDS011;64076;51.466;7.260;2023-11-22T08:42:17;6.53;;;3.63;;
75499;SDS011;64076;51.466;7.260;2023-11-22T08:44:43;6.40;;;4.05;;
75499;SDS011;64076;51.466;7.260;2023-11-22T08:47:08;5.93;;;4.00;;
75499;SDS011;64076;51.466;7.260;2023-11-22T08:49:34;6.20;;;4.40;;
75499;SDS011;64076;51.466;7.260;2023-11-22T08:51:59;6.00;;;4.03;;
75499;SDS011;64076;51.466;7.260;2023-11-22T08:54:26;5.53;;;4.03;;
75499;SDS011;64076;51.466;7.260;2023-11-22T08:56:55;5.18;;;3.80;;
75499;SDS011;64076;51.466;7.260;2023-11-22T08:59:23;5.53;;;4.03;;
75499;SDS011;64076;51.466;7.260;2023-11-22T09:01:48;5.57;;;3.85;;
75499;SDS011;64076;51.466;7.260;2023-11-22T09:04:14;6.00;;;4.23;;
75499;SDS011;64076;51.466;7.260;2023-11-22T09:06:40;5.95;;;4.10;;
75499;SDS011;64076;51.466;7.260;2023-11-22T09:09:06;5.07;;;3.73;;
75499;SDS011;64076;51.466;7.260;2023-11-22T09:11:33;6.25;;;3.50;;
75499;SDS011;64076;51.466;7.260;2023-11-22T09:13:59;8.55;;;3.95;;
75499;SDS011;64076;51.466;7.260;2023-11-22T09:16:34;5.70;;;3.95;;
75499;SDS011;64076;51.466;7.260;2023-11-22T09:19:00;7.53;;;3.50;;
75499;SDS011;64076;51.466;7.260;2023-11-22T09:21:26;4.80;;;3.63;;
75499;SDS011;64076;51.466;7.260;2023-11-22T09:23:51;6.10;;;3.83;;
75499;SDS011;64076;51.466;7.260;2023-11-22T09:26:17;6.17;;;3.87;;
75499;SDS011;64076;51.466;7.260;2023-11-22T09:28:43;6.32;;;3.83;;
75499;SDS011;64076;51.466;7.260;2023-11-22T09:31:09;5.30;;;3.57;;
75499;SDS011;64076;51.466;7.260;2023-11-22T09:56:07;5.78;;;3.15;;
75499;SDS011;64076;51.466;7.260;2023-11-22T09:58:34;4.80;;;3.35;;
75499;SDS011;64076;51.466;7.260;2023-11-22T10:01:03;5.90;;;3.27;;
75499;SDS011;64076;51.466;7.260;2023-11-22T10:17:55;5.97;;;2.95;;
75499;SDS011;64076;51.466;7.260;2023-11-22T10:20:35;4.60;;;3.03;;
75499;SDS011;64076;51.466;7.260;2023-11-22T10:23:03;4.28;;;2.92;;
75499;SDS011;64076;51.466;7.260;2023-11-22T10:25:29;4.47;;;3.17;;
75499;SDS011;64076;51.466;7.260;2023-11-22T10:27:57;4.47;;;3.20;;
75499;SDS011;64076;51.466;7.260;2023-11-22T10:30:23;4.40;;;3.00;;
75499;SDS011;64076;51.466;7.260;2023-11-22T10:32:49;10.55;;;3.38;;
75499;SDS011;64076;51.466;7.260;2023-11-22T10:35:16;5.00;;;2.40;;
75499;SDS011;64076;51.466;7.260;2023-11-22T10:37:47;4.07;;;2.53;;
75499;SDS011;64076;51.466;7.260;2023-11-22T10:40:13;4.37;;;2.77;;
75499;SDS011;64076;51.466;7.260;2023-11-22T10:42:40;4.60;;;2.60;;
75499;SDS011;64076;51.466;7.260;2023-11-22T10:45:08;5.00;;;2.63;;
75499;SDS011;64076;51.466;7.260;2023-11-22T10:47:36;5.35;;;2.63;;
75499;SDS011;64076;51.466;7.260;2023-11-22T10:50:04;4.68;;;2.47;;
75499;SDS011;64076;51.466;7.260;2023-11-22T10:52:32;5.88;;;2.53;;
75499;SDS011;64076;51.466;7.260;2023-11-22T10:55:04;4.07;;;2.63;;
75499;SDS011;64076;51.466;7.260;2023-11-22T10:57:32;5.50;;;2.50;;
75499;SDS011;64076;51.466;7.260;2023-11-22T11:00:02;8.15;;;2.30;;
75499;SDS011;64076;51.466;7.260;2023-11-22T11:02:35;4.40;;;2.50;;
75499;SDS011;64076;51.466;7.260;2023-11-22T11:05:08;4.28;;;2.30;;
75499;SDS011;64076;51.466;7.260;2023-11-22T11:07:42;3.88;;;2.35;;
75499;SDS011;64076;51.466;7.260;2023-11-22T11:10:18;4.20;;;2.67;;
75499;SDS011;64076;51.466;7.260;2023-11-22T11:12:46;5.55;;;2.50;;
75499;SDS011;64076;51.466;7.260;2023-11-22T11:15:12;6.00;;;2.70;;
75499;SDS011;64076;51.466;7.260;2023-11-22T11:17:38;4.43;;;2.03;;
75499;SDS011;64076;51.466;7.260;2023-11-22T11:20:04;4.88;;;2.40;;
75499;SDS011;64076;51.466;7.260;2023-11-22T11:22:32;7.80;;;2.40;;
75499;SDS011;64076;51.466;7.260;2023-11-22T11:25:04;5.13;;;2.42;;
75499;SDS011;64076;51.466;7.260;2023-11-22T11:27:33;7.85;;;2.03;;
75499;SDS011;64076;51.466;7.260;2023-11-22T11:33:08;7.13;;;2.67;;
75499;SDS011;64076;51.466;7.260;2023-11-22T11:35:37;6.07;;;3.00;;
75499;SDS011;64076;51.466;7.260;2023-11-22T11:38:04;5.22;;;2.78;;
75499;SDS011;64076;51.466;7.260;2023-11-22T11:40:33;5.15;;;2.95;;
75499;SDS011;64076;51.466;7.260;2023-11-22T11:43:00;5.57;;;3.20;;
75499;SDS011;64076;51.466;7.260;2023-11-22T11:45:27;7.37;;;3.77;;
75499;SDS011;64076;51.466;7.260;2023-11-22T11:47:54;5.30;;;2.80;;
75499;SDS011;64076;51.466;7.260;2023-11-22T11:50:22;8.43;;;3.27;;
75499;SDS011;64076;51.466;7.260;2023-11-22T11:52:48;8.35;;;3.22;;
75499;SDS011;64076;51.466;7.260;2023-11-22T11:55:13;5.77;;;3.37;;
75499;SDS011;64076;51.466;7.260;2023-11-22T11:57:40;5.40;;;2.88;;
75499;SDS011;64076;51.466;7.260;2023-11-22T12:00:11;5.15;;;2.95;;
75499;SDS011;64076;51.466;7.260;2023-11-22T12:02:39;6.05;;;3.10;;
75499;SDS011;64076;51.466;7.260;2023-11-22T12:05:05;4.55;;;2.47;;
75499;SDS011;64076;51.466;7.260;2023-11-22T12:07:34;5.60;;;3.30;;
75499;SDS011;64076;51.466;7.260;2023-11-22T12:10:00;4.85;;;2.63;;
75499;SDS011;64076;51.466;7.260;2023-11-22T12:12:26;5.05;;;2.70;;
75499;SDS011;64076;51.466;7.260;2023-11-22T12:14:52;6.33;;;2.77;;
75499;SDS011;64076;51.466;7.260;2023-11-22T12:17:17;6.30;;;2.63;;
75499;SDS011;64076;51.466;7.260;2023-11-22T12:19:44;3.72;;;2.40;;
75499;SDS011;64076;51.466;7.260;2023-11-22T12:22:10;6.43;;;2.53;;
75499;SDS011;64076;51.466;7.260;2023-11-22T12:24:37;5.43;;;2.40;;
75499;SDS011;64076;51.466;7.260;2023-11-22T12:27:03;4.47;;;2.53;;
75499;SDS011;64076;51.466;7.260;2023-11-22T12:29:31;4.50;;;2.27;;
75499;SDS011;64076;51.466;7.260;2023-11-22T12:31:56;6.13;;;2.17;;
75499;SDS011;64076;51.466;7.260;2023-11-22T12:34:22;4.10;;;2.27;;
75499;SDS011;64076;51.466;7.260;2023-11-22T12:36:51;5.50;;;2.25;;
75499;SDS011;64076;51.466;7.260;2023-11-22T12:39:19;5.68;;;2.25;;
75499;SDS011;64076;51.466;7.260;2023-11-22T12:41:49;5.00;;;2.40;;
75499;SDS011;64076;51.466;7.260;2023-11-22T12:44:16;10.55;;;2.40;;
75499;SDS011;64076;51.466;7.260;2023-11-22T12:47:03;5.03;;;2.30;;
75499;SDS011;64076;51.466;7.260;2023-11-22T12:49:42;7.18;;;2.63;;
75499;SDS011;64076;51.466;7.260;2023-11-22T12:52:13;5.00;;;2.35;;
75499;SDS011;64076;51.466;7.260;2023-11-22T12:54:39;4.40;;;2.27;;
75499;SDS011;64076;51.466;7.260;2023-11-22T12:57:09;4.40;;;2.60;;
75499;SDS011;64076;51.466;7.260;2023-11-22T12:59:37;4.22;;;2.28;;
75499;SDS011;64076;51.466;7.260;2023-11-22T13:02:04;4.83;;;2.60;;
75499;SDS011;64076;51.466;7.260;2023-11-22T13:04:31;4.20;;;2.50;;
75499;SDS011;64076;51.466;7.260;2023-11-22T13:06:58;5.32;;;2.53;;
75499;SDS011;64076;51.466;7.260;2023-11-22T13:09:24;3.95;;;2.33;;
75499;SDS011;64076;51.466;7.260;2023-11-22T13:11:50;4.80;;;2.40;;
75499;SDS011;64076;51.466;7.260;2023-11-22T13:14:17;4.03;;;2.33;;
75499;SDS011;64076;51.466;7.260;2023-11-22T13:16:43;5.05;;;2.90;;
75499;SDS011;64076;51.466;7.260;2023-11-22T13:19:10;4.22;;;2.47;;
75499;SDS011;64076;51.466;7.260;2023-11-22T13:21:36;4.03;;;2.25;;
75499;SDS011;64076;51.466;7.260;2023-11-22T13:24:02;5.73;;;2.30;;
75499;SDS011;64076;51.466;7.260;2023-11-22T13:26:28;5.13;;;2.33;;
75499;SDS011;64076;51.466;7.260;2023-11-22T13:28:54;4.60;;;2.33;;
75499;SDS011;64076;51.466;7.260;2023-11-22T13:31:20;3.83;;;2.30;;
75499;SDS011;64076;51.466;7.260;2023-11-22T13:33:46;5.50;;;2.95;;
75499;SDS011;64076;51.466;7.260;2023-11-22T13:36:12;3.60;;;2.25;;
75499;SDS011;64076;51.466;7.260;2023-11-22T13:38:39;5.27;;;2.90;;
75499;SDS011;64076;51.466;7.260;2023-11-22T13:41:05;5.22;;;2.55;;
75499;SDS011;64076;51.466;7.260;2023-11-22T13:43:30;5.47;;;2.55;;
75499;SDS011;64076;51.466;7.260;2023-11-22T13:45:58;4.75;;;2.50;;
75499;SDS011;64076;51.466;7.260;2023-11-22T13:48:26;6.10;;;2.60;;
75499;SDS011;64076;51.466;7.260;2023-11-22T13:50:52;5.10;;;2.30;;
75499;SDS011;64076;51.466;7.260;2023-11-22T13:53:17;5.77;;;2.50;;
75499;SDS011;64076;51.466;7.260;2023-11-22T13:55:47;6.07;;;3.10;;
75499;SDS011;64076;51.466;7.260;2023-11-22T13:58:17;8.43;;;2.85;;
75499;SDS011;64076;51.466;7.260;2023-11-22T14:00:42;5.57;;;2.80;;
75499;SDS011;64076;51.466;7.260;2023-11-22T14:03:08;8.83;;;2.83;;
75499;SDS011;64076;51.466;7.260;2023-11-22T14:05:36;7.83;;;2.73;;
75499;SDS011;64076;51.466;7.260;2023-11-22T14:08:03;14.95;;;3.10;;
75499;SDS011;64076;51.466;7.260;2023-11-22T14:10:31;11.02;;;3.35;;
75499;SDS011;64076;51.466;7.260;2023-11-22T14:12:56;9.27;;;2.77;;
75499;SDS011;64076;51.466;7.260;2023-11-22T14:15:25;10.65;;;2.83;;
75499;SDS011;64076;51.466;7.260;2023-11-22T14:17:55;13.75;;;2.97;;
75499;SDS011;64076;51.466;7.260;2023-11-22T14:20:20;12.77;;;2.70;;
75499;SDS011;64076;51.466;7.260;2023-11-22T14:22:46;12.10;;;2.77;;
75499;SDS011;64076;51.466;7.260;2023-11-22T14:25:13;9.88;;;2.53;;
75499;SDS011;64076;51.466;7.260;2023-11-22T14:27:40;7.68;;;2.40;;
75499;SDS011;64076;51.466;7.260;2023-11-22T14:30:07;7.05;;;2.50;;
75499;SDS011;64076;51.466;7.260;2023-11-22T14:32:34;9.55;;;2.40;;
75499;SDS011;64076;51.466;7.260;2023-11-22T14:35:03;9.97;;;2.40;;
75499;SDS011;64076;51.466;7.260;2023-11-22T14:37:29;9.98;;;2.75;;
75499;SDS011;64076;51.466;7.260;2023-11-22T14:39:55;8.30;;;2.40;;
75499;SDS011;64076;51.466;7.260;2023-11-22T14:42:21;6.82;;;2.10;;
75499;SDS011;64076;51.466;7.260;2023-11-22T14:44:50;10.18;;;2.50;;
75499;SDS011;64076;51.466;7.260;2023-11-22T14:47:16;7.47;;;2.43;;
75499;SDS011;64076;51.466;7.260;2023-11-22T14:49:48;8.50;;;2.50;;
75499;SDS011;64076;51.466;7.260;2023-11-22T14:52:14;10.32;;;2.30;;
75499;SDS011;64076;51.466;7.260;2023-11-22T14:54:41;6.18;;;2.38;;
75499;SDS011;64076;51.466;7.260;2023-11-22T14:57:07;9.25;;;2.15;;
75499;SDS011;64076;51.466;7.260;2023-11-22T14:59:34;6.10;;;2.13;;
75499;SDS011;64076;51.466;7.260;2023-11-22T15:02:02;15.40;;;2.17;;
75499;SDS011;64076;51.466;7.260;2023-11-22T15:04:29;12.65;;;2.95;;
75499;SDS011;64076;51.466;7.260;2023-11-22T15:06:55;11.43;;;2.30;;
75499;SDS011;64076;51.466;7.260;2023-11-22T15:09:21;8.47;;;2.60;;
75499;SDS011;64076;51.466;7.260;2023-11-22T15:11:47;11.20;;;2.28;;